Time;durP1;ratioP1;P1;durP2;ratioP2;P2;SDS_P1;SDS_P2;PMS_P1;PMS_P2;Temp;Humidity;BMP_temperature;BMP_pressure;BME280_temperature;BME280_humidity;BME280_pressure;Samples;Min_cycle;Max_cycle;Signal;HPM_P1;HPM_P2
2021/01/20 00:00:51;;;;;;;;;;;;;;;;;;;;;
2021/01/20 00:03:20;;;;;;;11.57;10.45;;;;;;;;;;6255936;23;20204;-83
2021/01/20 00:05:49;;;;;;;10.95;9.90;;;;;;;;;;6233182;23;20165;-83
2021/01/20 00:08:24;;;;;;;10.15;9.15;;;;;;;;;;6262201;23;20162;-83
2021/01/20 00:10:54;;;;;;;12.02;10.25;;;;;;;;;;6266406;23;20157;-83
2021/01/20 00:13:24;;;;;;;11.38;8.82;;;;;;;;;;6237928;23;20279;-82
2021/01/20 00:15:50;;;;;;;14.60;11.82;;;;;;;;;;6265586;23;20232;-84
2021/01/20 00:18:16;;;;;;;13.10;11.77;;;;;;;;;;6244732;23;20166;-83
2021/01/20 00:20:46;;;;;;;15.85;13.10;;;;;;;;;;6242540;23;20150;-84
2021/01/20 00:23:25;;;;;;;;;;;;;;;;;;;;;
2021/01/20 00:26:05;;;;;;;;;;;;;;;;;;;;;
2021/01/20 00:28:42;;;;;;;15.55;13.90;;;;;;;;;;6274140;22;20192;-83
2021/01/20 00:31:09;;;;;;;12.95;11.60;;;;;;;;;;6274350;22;20153;-84
2021/01/20 00:33:39;;;;;;;15.73;14.13;;;;;;;;;;6248921;22;20157;-84
2021/01/20 00:36:07;;;;;;;14.77;13.13;;;;;;;;;;6268660;22;20153;-82
2021/01/20 00:38:33;;;;;;;13.32;11.93;;;;;;;;;;6268955;22;20166;-83
2021/01/20 00:41:05;;;;;;;15.40;12.70;;;;;;;;;;6240143;23;20161;-82
2021/01/20 00:43:32;;;;;;;13.48;12.18;;;;;;;;;;6235587;23;20322;-82
2021/01/20 00:46:01;;;;;;;14.73;12.27;;;;;;;;;;6235889;23;20615;-82
2021/01/20 00:48:27;;;;;;;16.48;12.70;;;;;;;;;;6266397;22;20158;-82
2021/01/20 00:50:58;;;;;;;14.77;13.18;;;;;;;;;;6244319;23;20197;-82
2021/01/20 00:53:25;;;;;;;15.18;13.60;;;;;;;;;;6269409;23;20150;-82
2021/01/20 00:56:12;;;;;;;;;;;;;;;;;;;;;
2021/01/20 00:58:40;;;;;;;16.48;14.88;;;;;;;;;;6263982;22;20251;-83
2021/01/20 01:01:09;;;;;;;20.73;14.85;;;;;;;;;;6262477;23;20161;-82
2021/01/20 01:03:43;;;;;;;18.65;13.13;;;;;;;;;;6237496;23;20177;-81
2021/01/20 01:06:09;;;;;;;18.13;13.70;;;;;;;;;;6263159;23;20149;-82
2021/01/20 01:08:35;;;;;;;15.95;14.38;;;;;;;;;;6263190;22;20165;-83
2021/01/20 01:11:04;;;;;;;14.20;12.68;;;;;;;;;;6238109;23;20146;-83
2021/01/20 01:13:44;;;;;;;14.75;12.90;;;;;;;;;;6264379;23;20164;-83
2021/01/20 01:16:41;;;;;;;14.85;12.30;;;;;;;;;;6245635;23;20225;-83
2021/01/20 01:19:08;;;;;;;13.65;12.30;;;;;;;;;;6264098;22;20166;-83
2021/01/20 01:21:35;;;;;;;12.35;11.13;;;;;;;;;;6265776;23;20577;-82
2021/01/20 01:24:04;;;;;;;15.98;12.73;;;;;;;;;;6242056;23;20245;-82
2021/01/20 01:26:31;;;;;;;14.13;12.38;;;;;;;;;;6268221;23;20169;-80
2021/01/20 01:28:57;;;;;;;14.55;12.18;;;;;;;;;;6247482;22;20162;-83
2021/01/20 01:31:43;;;;;;;12.30;11.05;;;;;;;;;;6269227;22;20208;-80
2021/01/20 01:34:10;;;;;;;13.23;11.82;;;;;;;;;;6266563;23;20169;-83
2021/01/20 01:36:37;;;;;;;13.48;11.30;;;;;;;;;;6255278;23;20150;-82
2021/01/20 01:39:20;;;;;;;12.05;10.80;;;;;;;;;;6226786;22;20193;-84
2021/01/20 01:41:49;;;;;;;10.50;9.45;;;;;;;;;;6225677;23;20142;-84
2021/01/20 01:44:18;;;;;;;12.25;11.05;;;;;;;;;;6225293;23;20170;-84
2021/01/20 01:46:55;;;;;;;13.80;12.40;;;;;;;;;;6227717;23;20145;-83
2021/01/20 01:49:30;;;;;;;11.73;10.57;;;;;;;;;;6204373;23;20245;-83
2021/01/20 01:51:59;;;;;;;13.40;11.43;;;;;;;;;;6227411;23;20166;-83
2021/01/20 01:54:38;;;;;;;14.27;12.60;;;;;;;;;;6264897;23;20140;-84
2021/01/20 01:57:14;;;;;;;13.88;12.48;;;;;;;;;;6228892;23;20137;-84
2021/01/20 01:59:47;;;;;;;14.23;12.60;;;;;;;;;;6254473;23;20514;-83
2021/01/20 02:02:30;;;;;;;13.10;11.57;;;;;;;;;;6229755;23;20145;-83
2021/01/20 02:04:57;;;;;;;12.73;11.18;;;;;;;;;;6229141;23;20157;-83
2021/01/20 02:07:28;;;;;;;13.45;12.05;;;;;;;;;;6227148;23;20142;-83
2021/01/20 02:09:56;;;;;;;14.95;12.80;;;;;;;;;;6226106;23;20145;-82
2021/01/20 02:12:29;;;;;;;13.50;11.98;;;;;;;;;;6225722;23;20225;-82
2021/01/20 02:15:15;;;;;;;16.27;14.52;;;;;;;;;;6227776;23;20483;-83
2021/01/20 02:17:48;;;;;;;12.60;11.30;;;;;;;;;;6252981;23;20162;-83
2021/01/20 02:20:41;;;;;;;13.07;11.88;;;;;;;;;;6226161;23;20572;-83
2021/01/20 02:23:11;;;;;;;15.32;13.30;;;;;;;;;;6226337;23;20173;-83
2021/01/20 02:25:43;;;;;;;14.63;13.10;;;;;;;;;;6227932;23;20572;-84
2021/01/20 02:28:27;;;;;;;16.73;15.00;;;;;;;;;;6230625;23;20536;-83
2021/01/20 02:31:17;;;;;;;16.77;15.15;;;;;;;;;;6227400;23;20145;-83
2021/01/20 02:33:46;;;;;;;13.77;12.45;;;;;;;;;;6254555;23;20142;-83
2021/01/20 02:36:33;;;;;;;16.13;14.48;;;;;;;;;;6253987;23;20218;-83
2021/01/20 02:39:22;;;;;;;17.88;15.93;;;;;;;;;;6198348;23;20209;-82
2021/01/20 02:42:04;;;;;;;15.77;14.27;;;;;;;;;;6227739;23;20161;-82
2021/01/20 02:44:41;;;;;;;16.35;14.80;;;;;;;;;;6254813;23;20134;-82
2021/01/20 02:47:30;;;;;;;14.50;12.95;;;;;;;;;;6253988;23;20547;-83
2021/01/20 02:50:00;;;;;;;16.33;14.48;;;;;;;;;;6227216;23;20218;-82
2021/01/20 02:52:37;;;;;;;15.43;13.82;;;;;;;;;;6228421;23;20146;-83
2021/01/20 02:55:29;;;;;;;15.48;13.75;;;;;;;;;;6238790;23;20146;-83
2021/01/20 02:58:20;;;;;;;14.93;12.65;;;;;;;;;;6194871;23;20177;-83
2021/01/20 03:01:07;;;;;;;18.80;16.17;;;;;;;;;;6255398;23;20150;-83
2021/01/20 03:03:34;;;;;;;14.85;12.82;;;;;;;;;;6255953;23;20247;-83
2021/01/20 03:06:01;;;;;;;14.57;12.75;;;;;;;;;;6255915;23;20157;-83
2021/01/20 03:08:27;;;;;;;14.85;13.30;;;;;;;;;;6256510;22;20194;-83
2021/01/20 03:10:54;;;;;;;14.88;13.48;;;;;;;;;;6255829;23;20480;-83
2021/01/20 03:13:21;;;;;;;14.02;12.73;;;;;;;;;;6258145;23;20154;-83
2021/01/20 03:15:50;;;;;;;15.43;14.05;;;;;;;;;;6260477;23;20181;-83
2021/01/20 03:18:16;;;;;;;13.88;12.50;;;;;;;;;;6234428;23;20178;-83
2021/01/20 03:20:42;;;;;;;15.18;13.70;;;;;;;;;;6259155;23;20154;-83
2021/01/20 03:23:08;;;;;;;14.93;11.75;;;;;;;;;;6256648;22;20190;-83
2021/01/20 03:25:35;;;;;;;15.38;13.88;;;;;;;;;;6231096;23;20556;-83
2021/01/20 03:28:01;;;;;;;14.30;12.90;;;;;;;;;;6256159;23;20165;-83
2021/01/20 03:30:27;;;;;;;16.23;14.45;;;;;;;;;;6256483;22;20142;-83
2021/01/20 03:32:53;;;;;;;16.65;13.27;;;;;;;;;;6256377;23;20162;-83
2021/01/20 03:35:19;;;;;;;15.13;13.38;;;;;;;;;;6256817;23;20237;-83
2021/01/20 03:37:46;;;;;;;13.85;12.60;;;;;;;;;;6229360;22;20170;-83
2021/01/20 03:40:13;;;;;;;14.27;13.00;;;;;;;;;;6257175;23;20149;-83
2021/01/20 03:42:39;;;;;;;12.82;11.52;;;;;;;;;;6257525;23;20177;-83
2021/01/20 03:45:05;;;;;;;13.10;11.70;;;;;;;;;;6256143;23;20153;-83
2021/01/20 03:47:31;;;;;;;13.90;12.15;;;;;;;;;;6257128;22;20150;-83
2021/01/20 03:49:57;;;;;;;12.70;11.60;;;;;;;;;;6258037;23;20177;-83
2021/01/20 03:52:23;;;;;;;13.57;10.80;;;;;;;;;;6261452;23;20182;-83
2021/01/20 03:54:49;;;;;;;12.50;11.40;;;;;;;;;;6262722;22;20177;-83
2021/01/20 03:57:15;;;;;;;11.73;10.52;;;;;;;;;;6259728;23;20141;-82
2021/01/20 03:59:41;;;;;;;11.70;10.77;;;;;;;;;;6259700;22;20174;-83
2021/01/20 04:02:07;;;;;;;13.63;12.35;;;;;;;;;;6260024;23;20161;-83
2021/01/20 04:04:34;;;;;;;11.63;10.48;;;;;;;;;;6233921;23;20178;-83
2021/01/20 04:07:03;;;;;;;12.45;11.35;;;;;;;;;;6262357;23;20146;-83
2021/01/20 04:09:29;;;;;;;10.23;9.32;;;;;;;;;;6269512;22;20172;-82
2021/01/20 04:11:56;;;;;;;12.70;11.60;;;;;;;;;;6270956;23;20186;-82
2021/01/20 04:14:22;;;;;;;10.57;9.20;;;;;;;;;;6244167;23;20164;-83
2021/01/20 04:16:48;;;;;;;11.50;9.55;;;;;;;;;;6244899;23;20153;-83
2021/01/20 04:19:16;;;;;;;12.68;9.20;;;;;;;;;;6272055;23;20184;-82
2021/01/20 04:21:42;;;;;;;9.05;8.27;;;;;;;;;;6244776;23;20135;-82
2021/01/20 04:24:10;;;;;;;9.63;8.70;;;;;;;;;;6268630;22;20177;-82
2021/01/20 04:26:36;;;;;;;9.48;8.68;;;;;;;;;;6243430;23;20146;-82
2021/01/20 04:29:03;;;;;;;14.05;11.52;;;;;;;;;;6243729;23;20158;-82
2021/01/20 04:31:29;;;;;;;9.98;9.05;;;;;;;;;;6244014;23;20146;-82
2021/01/20 04:33:55;;;;;;;10.07;8.25;;;;;;;;;;6244280;23;20256;-83
2021/01/20 04:36:21;;;;;;;9.82;8.82;;;;;;;;;;6270651;23;20150;-83
2021/01/20 04:38:47;;;;;;;11.90;8.98;;;;;;;;;;6242918;23;20189;-83
2021/01/20 04:41:13;;;;;;;9.95;8.93;;;;;;;;;;6219457;23;20150;-83
2021/01/20 04:43:42;;;;;;;13.95;9.40;;;;;;;;;;6270953;23;20193;-83
2021/01/20 04:46:08;;;;;;;10.70;9.30;;;;;;;;;;6270465;22;20150;-83
2021/01/20 04:48:35;;;;;;;10.02;9.10;;;;;;;;;;6270899;23;20189;-83
2021/01/20 04:51:14;;;;;;;11.35;10.15;;;;;;;;;;6269791;23;20138;-83
2021/01/20 04:53:40;;;;;;;9.52;8.40;;;;;;;;;;6243782;23;20206;-83
2021/01/20 04:56:10;;;;;;;11.38;9.18;;;;;;;;;;6262669;22;20150;-83
2021/01/20 04:58:36;;;;;;;9.38;8.25;;;;;;;;;;6254349;23;20166;-83
2021/01/20 05:01:02;;;;;;;8.25;7.50;;;;;;;;;;6255301;23;20142;-83
2021/01/20 05:03:29;;;;;;;9.80;8.07;;;;;;;;;;6228754;23;20511;-83
2021/01/20 05:05:55;;;;;;;11.98;7.90;;;;;;;;;;6255607;22;20203;-83
2021/01/20 05:08:21;;;;;;;6.93;6.30;;;;;;;;;;6254840;23;20161;-83
2021/01/20 05:10:48;;;;;;;8.43;7.63;;;;;;;;;;6257883;22;20138;-83
2021/01/20 05:13:23;;;;;;;14.68;9.30;;;;;;;;;;6231333;23;20219;-83
2021/01/20 05:15:49;;;;;;;11.70;8.50;;;;;;;;;;6271678;23;20138;-83
2021/01/20 05:18:15;;;;;;;9.48;8.57;;;;;;;;;;6245644;23;20199;-82
2021/01/20 05:20:41;;;;;;;14.48;7.55;;;;;;;;;;6272019;23;20607;-83
2021/01/20 05:23:08;;;;;;;9.73;8.30;;;;;;;;;;6271649;22;20184;-82
2021/01/20 05:25:36;;;;;;;14.88;10.80;;;;;;;;;;6270335;23;20138;-82
2021/01/20 05:28:34;;;;;;;7.97;7.28;;;;;;;;;;6245020;23;20153;-83
2021/01/20 05:31:01;;;;;;;14.52;11.30;;;;;;;;;;6223550;23;20150;-84
2021/01/20 05:33:28;;;;;;;11.50;7.90;;;;;;;;;;6272255;23;20146;-84
2021/01/20 05:36:04;;;;;;;8.27;7.43;;;;;;;;;;6245086;23;20157;-83
2021/01/20 05:38:37;;;;;;;9.45;8.65;;;;;;;;;;6243761;23;20250;-84
2021/01/20 05:41:22;;;;;;;8.18;7.15;;;;;;;;;;6270931;23;20142;-83
2021/01/20 05:43:50;;;;;;;8.38;7.25;;;;;;;;;;6270513;23;20192;-82
2021/01/20 05:46:29;;;;;;;9.98;7.93;;;;;;;;;;6240537;23;20161;-83
2021/01/20 05:48:55;;;;;;;9.32;8.43;;;;;;;;;;6264843;23;20221;-83
2021/01/20 05:51:22;;;;;;;11.30;10.23;;;;;;;;;;6265958;23;20149;-82
2021/01/20 05:53:54;;;;;;;8.80;8.00;;;;;;;;;;6259028;22;20199;-82
2021/01/20 05:56:30;;;;;;;8.90;8.10;;;;;;;;;;6266372;23;20180;-82
2021/01/20 05:58:59;;;;;;;10.25;8.63;;;;;;;;;;6235731;23;20184;-83
2021/01/20 06:01:26;;;;;;;9.80;8.38;;;;;;;;;;6265254;23;20150;-82
2021/01/20 06:03:55;;;;;;;11.70;10.63;;;;;;;;;;6264695;23;20182;-83
2021/01/20 06:06:21;;;;;;;11.27;10.23;;;;;;;;;;6237978;23;20122;-83
2021/01/20 06:08:48;;;;;;;10.50;9.40;;;;;;;;;;6236461;23;20186;-84
2021/01/20 06:11:14;;;;;;;8.60;7.80;;;;;;;;;;6260527;23;20144;-83
2021/01/20 06:13:40;;;;;;;10.75;9.75;;;;;;;;;;6231774;23;20154;-82
2021/01/20 06:16:16;;;;;;;10.07;8.68;;;;;;;;;;6232591;23;20158;-84
2021/01/20 06:18:47;;;;;;;8.57;7.72;;;;;;;;;;6231200;23;20235;-82
2021/01/20 06:21:15;;;;;;;7.55;6.95;;;;;;;;;;6258060;23;20138;-83
2021/01/20 06:23:44;;;;;;;8.35;7.53;;;;;;;;;;6231816;23;20571;-83
2021/01/20 06:26:12;;;;;;;7.50;6.90;;;;;;;;;;6257497;22;20134;-83
2021/01/20 06:28:40;;;;;;;6.30;5.72;;;;;;;;;;6230300;23;20169;-84
2021/01/20 06:31:07;;;;;;;7.88;7.07;;;;;;;;;;6258979;23;20145;-83
2021/01/20 06:33:34;;;;;;;9.40;5.88;;;;;;;;;;6259530;23;20146;-83
2021/01/20 06:36:00;;;;;;;8.02;7.07;;;;;;;;;;6232577;23;20153;-83
2021/01/20 06:38:29;;;;;;;9.18;8.38;;;;;;;;;;6234156;23;20197;-84
2021/01/20 06:41:00;;;;;;;9.18;8.35;;;;;;;;;;6230783;23;20169;-83
2021/01/20 06:43:35;;;;;;;6.45;5.70;;;;;;;;;;6257342;23;20268;-83
2021/01/20 06:46:22;;;;;;;7.93;7.20;;;;;;;;;;6230074;23;20154;-83
2021/01/20 06:48:54;;;;;;;7.22;6.40;;;;;;;;;;6232038;23;20169;-83
2021/01/20 06:51:21;;;;;;;12.88;11.50;;;;;;;;;;6233776;23;20170;-83
2021/01/20 06:54:03;;;;;;;7.03;6.35;;;;;;;;;;6260496;23;20207;-83
2021/01/20 06:56:30;;;;;;;7.90;6.88;;;;;;;;;;6234212;23;20161;-83
2021/01/20 06:59:15;;;;;;;7.53;6.75;;;;;;;;;;6259208;22;20169;-83
2021/01/20 07:01:41;;;;;;;7.78;7.03;;;;;;;;;;6260614;23;20265;-83
2021/01/20 07:04:10;;;;;;;7.97;6.95;;;;;;;;;;6234629;23;20241;-83
2021/01/20 07:06:37;;;;;;;5.70;5.10;;;;;;;;;;6234068;23;20172;-83
2021/01/20 07:09:09;;;;;;;8.40;5.20;;;;;;;;;;6234803;23;20169;-83
2021/01/20 07:11:53;;;;;;;7.70;5.38;;;;;;;;;;6260959;22;20142;-83
2021/01/20 07:14:26;;;;;;;5.80;5.10;;;;;;;;;;6261501;23;20142;-83
2021/01/20 07:16:54;;;;;;;8.05;6.60;;;;;;;;;;6234524;23;20207;-83
2021/01/20 07:19:20;;;;;;;5.90;5.30;;;;;;;;;;6233121;23;20506;-83
2021/01/20 07:21:46;;;;;;;5.80;5.30;;;;;;;;;;6259863;23;20142;-83
2021/01/20 07:24:12;;;;;;;6.32;5.45;;;;;;;;;;6260769;23;20173;-83
2021/01/20 07:26:39;;;;;;;11.43;5.03;;;;;;;;;;6260285;22;20149;-82
2021/01/20 07:29:16;;;;;;;5.85;4.10;;;;;;;;;;6259580;23;20192;-83
2021/01/20 07:31:46;;;;;;;6.10;5.60;;;;;;;;;;6260221;23;20154;-85
2021/01/20 07:34:12;;;;;;;6.20;5.05;;;;;;;;;;6231668;23;20234;-83
2021/01/20 07:36:39;;;;;;;5.00;4.60;;;;;;;;;;6228844;23;20154;-83
2021/01/20 07:39:25;;;;;;;5.05;4.57;;;;;;;;;;6220734;22;20563;-83
2021/01/20 07:41:56;;;;;;;7.72;5.93;;;;;;;;;;6232821;23;20142;-83
2021/01/20 07:44:23;;;;;;;6.47;4.97;;;;;;;;;;6234948;23;20177;-81
2021/01/20 07:47:16;;;;;;;7.45;4.93;;;;;;;;;;6235450;23;20494;-82
2021/01/20 07:49:56;;;;;;;11.07;7.03;;;;;;;;;;6229693;23;20217;-83
2021/01/20 07:52:25;;;;;;;9.00;5.65;;;;;;;;;;6204858;23;20272;-81
2021/01/20 07:54:51;;;;;;;9.40;5.00;;;;;;;;;;6202832;23;20594;-82
2021/01/20 07:57:19;;;;;;;7.97;5.07;;;;;;;;;;6204087;23;20146;-82
2021/01/20 07:59:58;;;;;;;4.80;4.45;;;;;;;;;;6229577;23;20288;-82
2021/01/20 08:02:24;;;;;;;5.88;4.57;;;;;;;;;;6203045;23;20131;-83
2021/01/20 08:04:59;;;;;;;4.70;4.30;;;;;;;;;;6206631;23;20162;-82
2021/01/20 08:07:25;;;;;;;6.47;4.45;;;;;;;;;;6213236;23;20208;-80
2021/01/20 08:09:51;;;;;;;7.50;4.78;;;;;;;;;;6186995;23;20174;-79
2021/01/20 08:12:28;;;;;;;5.70;4.40;;;;;;;;;;6210814;23;20397;-81
2021/01/20 08:14:55;;;;;;;5.00;4.53;;;;;;;;;;6189524;23;20147;-81
2021/01/20 08:17:21;;;;;;;4.93;4.43;;;;;;;;;;6187053;23;20242;-81
2021/01/20 08:19:48;;;;;;;10.30;8.38;;;;;;;;;;6213757;23;20174;-81
2021/01/20 08:22:16;;;;;;;13.60;12.10;;;;;;;;;;6210377;23;20142;-82
2021/01/20 08:24:49;;;;;;;9.35;5.28;;;;;;;;;;6187889;23;20166;-81
2021/01/20 08:27:16;;;;;;;7.53;5.35;;;;;;;;;;6209080;23;20135;-82
2021/01/20 08:29:49;;;;;;;8.80;6.15;;;;;;;;;;6227137;23;20158;-82
2021/01/20 08:32:15;;;;;;;5.83;5.03;;;;;;;;;;6177898;23;20242;-83
2021/01/20 08:34:42;;;;;;;4.57;4.17;;;;;;;;;;6177048;23;20471;-81
2021/01/20 08:37:20;;;;;;;6.22;4.38;;;;;;;;;;6177513;23;20391;-80
2021/01/20 08:39:57;;;;;;;5.67;5.07;;;;;;;;;;6228762;23;20174;-82
2021/01/20 08:42:29;;;;;;;4.55;4.25;;;;;;;;;;6211996;22;20369;-84
2021/01/20 08:45:09;;;;;;;5.37;4.83;;;;;;;;;;6217826;22;20147;-84
2021/01/20 08:47:51;;;;;;;5.23;4.50;;;;;;;;;;6243141;22;20392;-83
2021/01/20 08:50:21;;;;;;;6.67;4.63;;;;;;;;;;6211082;23;20401;-82
2021/01/20 08:52:54;;;;;;;5.63;5.03;;;;;;;;;;6203890;23;20378;-81
2021/01/20 08:55:28;;;;;;;4.53;4.00;;;;;;;;;;6226357;23;20374;-82
2021/01/20 08:58:13;;;;;;;7.00;6.40;;;;;;;;;;6222303;23;20446;-82
2021/01/20 09:00:40;;;;;;;6.10;4.53;;;;;;;;;;6196053;23;20146;-82
2021/01/20 09:03:17;;;;;;;5.30;4.80;;;;;;;;;;6225483;23;20420;-83
2021/01/20 09:05:54;;;;;;;5.70;4.07;;;;;;;;;;6227276;23;20848;-82
2021/01/20 09:08:21;;;;;;;5.67;5.17;;;;;;;;;;6229428;23;20400;-81
2021/01/20 09:10:58;;;;;;;6.53;4.60;;;;;;;;;;6228768;23;20362;-85
2021/01/20 09:13:25;;;;;;;5.33;4.83;;;;;;;;;;6224874;23;20385;-83
2021/01/20 09:15:53;;;;;;;5.63;4.50;;;;;;;;;;6250380;23;20381;-81
2021/01/20 09:18:22;;;;;;;10.33;9.30;;;;;;;;;;6225111;23;20397;-82
2021/01/20 09:20:51;;;;;;;4.93;4.40;;;;;;;;;;6224907;23;20370;-81
2021/01/20 09:23:28;;;;;;;6.40;5.70;;;;;;;;;;6224461;23;20918;-83
2021/01/20 09:26:05;;;;;;;;;;;;;;;;;;;;;
2021/01/20 09:28:41;;;;;;;6.20;4.40;;;;;;;;;;6227037;23;20428;-80
2021/01/20 09:31:08;;;;;;;3.70;3.40;;;;;;;;;;6200421;23;20393;-81
2021/01/20 09:33:35;;;;;;;4.13;3.77;;;;;;;;;;6204488;23;20442;-83
2021/01/20 09:36:03;;;;;;;6.07;4.17;;;;;;;;;;6229539;23;20442;-83
2021/01/20 09:38:30;;;;;;;6.37;4.90;;;;;;;;;;6226541;23;20500;-82
2021/01/20 09:40:58;;;;;;;6.27;5.77;;;;;;;;;;6228533;23;20761;-83
2021/01/20 09:43:31;;;;;;;8.30;5.70;;;;;;;;;;6206126;23;20500;-82
2021/01/20 09:45:57;;;;;;;9.17;5.43;;;;;;;;;;6227303;23;20425;-83
2021/01/20 09:48:26;;;;;;;5.10;4.70;;;;;;;;;;6223569;23;20378;-83
2021/01/20 09:50:53;;;;;;;8.47;6.00;;;;;;;;;;6196341;23;20748;-83
2021/01/20 09:53:34;;;;;;;6.73;5.17;;;;;;;;;;6226318;23;20370;-83
2021/01/20 09:56:03;;;;;;;5.20;4.67;;;;;;;;;;6222708;23;20683;-84
2021/01/20 09:59:08;;;;;;;7.23;6.57;;;;;;;;;;6200444;23;20884;-83
2021/01/20 10:01:28;;;;;;;9.10;4.27;;;;;;;;;;6221620;23;20404;-81
2021/01/20 10:04:36;;;;;;;;;;;;;;;;;;;;;
2021/01/20 10:07:23;;;;;;;;;;;;;;;;;;;;;
2021/01/20 10:10:10;;;;;;;6.67;5.97;;;;;;;;;;6221620;23;20775;-84
2021/01/20 10:12:58;;;;;;;6.00;5.50;;;;;;;;;;6223328;23;20354;-84
2021/01/20 10:15:27;;;;;;;6.70;5.53;;;;;;;;;;6224576;23;20776;-82
2021/01/20 10:17:59;;;;;;;5.70;4.97;;;;;;;;;;6197158;23;20534;-82
2021/01/20 10:20:28;;;;;;;5.87;5.20;;;;;;;;;;6223781;23;20373;-84
2021/01/20 10:22:55;;;;;;;5.80;5.03;;;;;;;;;;6237988;23;20405;-82
2021/01/20 10:28:11;;;;;;;10.60;7.50;;;;;;;;;;6230772;22;20398;-83
2021/01/20 10:30:37;;;;;;;5.73;4.53;;;;;;;;;;6233941;22;20837;-81
2021/01/20 10:33:04;;;;;;;6.90;5.57;;;;;;;;;;6228437;23;20425;-84
2021/01/20 10:35:36;;;;;;;5.43;3.90;;;;;;;;;;6228939;23;20354;-81
2021/01/20 10:38:02;;;;;;;5.57;4.60;;;;;;;;;;6228472;23;20374;-83
2021/01/20 10:40:29;;;;;;;5.93;4.70;;;;;;;;;;6202157;23;20680;-84
2021/01/20 10:42:59;;;;;;;7.20;5.17;;;;;;;;;;6225844;23;20571;-82
2021/01/20 10:45:26;;;;;;;6.10;5.50;;;;;;;;;;6226193;23;20378;-82
2021/01/20 10:47:52;;;;;;;8.30;5.50;;;;;;;;;;6225634;23;20802;-82
2021/01/20 10:50:19;;;;;;;7.77;6.83;;;;;;;;;;6201887;23;20433;-82
2021/01/20 10:52:51;;;;;;;11.80;7.40;;;;;;;;;;6232026;23;20379;-83
2021/01/20 10:55:23;;;;;;;6.93;5.53;;;;;;;;;;6205536;23;20385;-81
2021/01/20 10:57:50;;;;;;;7.00;4.87;;;;;;;;;;6227925;23;20935;-82
2021/01/20 11:00:27;;;;;;;6.67;4.83;;;;;;;;;;6225566;23;20370;-83
2021/01/20 11:02:54;;;;;;;4.57;3.53;;;;;;;;;;6198932;23;20424;-84
2021/01/20 11:05:20;;;;;;;4.10;3.40;;;;;;;;;;6225501;23;20415;-83
2021/01/20 11:07:48;;;;;;;8.40;5.03;;;;;;;;;;6227839;23;20380;-83
2021/01/20 11:10:20;;;;;;;6.03;3.87;;;;;;;;;;6231235;23;20378;-84
2021/01/20 11:12:51;;;;;;;3.97;2.97;;;;;;;;;;6205157;23;20375;-84
2021/01/20 11:15:21;;;;;;;6.80;4.13;;;;;;;;;;6204591;23;20406;-83
2021/01/20 11:17:51;;;;;;;7.00;4.87;;;;;;;;;;6228213;23;20848;-84
2021/01/20 11:20:20;;;;;;;4.40;4.00;;;;;;;;;;6227738;23;20426;-82
2021/01/20 11:22:46;;;;;;;4.73;4.00;;;;;;;;;;6226969;23;20401;-83
2021/01/20 11:25:13;;;;;;;4.93;3.80;;;;;;;;;;6228386;23;20389;-80
2021/01/20 11:27:39;;;;;;;6.43;5.03;;;;;;;;;;6227766;23;20469;-80
2021/01/20 11:30:09;;;;;;;5.93;3.53;;;;;;;;;;6229077;23;20469;-82
2021/01/20 11:32:35;;;;;;;4.33;3.93;;;;;;;;;;6227713;23;20387;-82
2021/01/20 11:35:01;;;;;;;4.70;3.90;;;;;;;;;;6228531;23;20743;-82
2021/01/20 11:37:28;;;;;;;3.90;3.60;;;;;;;;;;6225378;23;20362;-82
2021/01/20 11:39:54;;;;;;;9.43;5.17;;;;;;;;;;6228521;23;20389;-82
2021/01/20 11:42:20;;;;;;;4.47;4.07;;;;;;;;;;6224238;23;20384;-81
2021/01/20 11:44:47;;;;;;;3.80;3.40;;;;;;;;;;6226773;23;20476;-83
2021/01/20 11:47:13;;;;;;;3.73;3.17;;;;;;;;;;6227918;23;20369;-82
2021/01/20 11:49:39;;;;;;;2.90;2.70;;;;;;;;;;6227465;23;20385;-81
2021/01/20 11:52:05;;;;;;;4.30;3.63;;;;;;;;;;6225509;23;20378;-82
2021/01/20 11:54:32;;;;;;;4.97;3.27;;;;;;;;;;6225408;23;20398;-81
2021/01/20 11:56:59;;;;;;;4.43;3.97;;;;;;;;;;6225386;23;20403;-82
2021/01/20 11:59:25;;;;;;;3.10;2.90;;;;;;;;;;6202522;23;20455;-85
2021/01/20 12:01:54;;;;;;;6.47;3.90;;;;;;;;;;6238056;22;20380;-80
2021/01/20 12:04:20;;;;;;;7.80;5.53;;;;;;;;;;6243113;22;20413;-82
2021/01/20 12:06:47;;;;;;;3.83;3.20;;;;;;;;;;6243640;22;20384;-81
2021/01/20 12:09:27;;;;;;;;;;;;;;;;;;;;;
2021/01/20 12:11:54;;;;;;;5.13;4.73;;;;;;;;;;6226000;23;20433;-82
2021/01/20 12:14:20;;;;;;;3.50;3.20;;;;;;;;;;6226474;23;20390;-82
2021/01/20 12:16:46;;;;;;;8.43;3.67;;;;;;;;;;6224374;23;20512;-82
2021/01/20 12:19:13;;;;;;;2.90;2.70;;;;;;;;;;6200068;23;20450;-82
2021/01/20 12:21:39;;;;;;;6.37;4.80;;;;;;;;;;6225814;23;20370;-84
2021/01/20 12:24:06;;;;;;;4.40;3.10;;;;;;;;;;6222838;23;20430;-81
2021/01/20 12:26:32;;;;;;;3.93;3.57;;;;;;;;;;6223223;23;20374;-81
2021/01/20 12:28:59;;;;;;;8.03;4.43;;;;;;;;;;6224180;23;20983;-82
2021/01/20 12:31:25;;;;;;;7.30;2.80;;;;;;;;;;6226585;23;20377;-82
2021/01/20 12:33:51;;;;;;;5.60;3.43;;;;;;;;;;6225916;23;20420;-83
2021/01/20 12:36:20;;;;;;;3.33;3.03;;;;;;;;;;6225500;23;20543;-81
2021/01/20 12:38:46;;;;;;;2.93;2.50;;;;;;;;;;6224617;23;20403;-83
2021/01/20 12:41:13;;;;;;;2.63;2.23;;;;;;;;;;6223944;23;20717;-81
2021/01/20 12:43:42;;;;;;;5.33;2.70;;;;;;;;;;6224109;23;20426;-83
2021/01/20 12:46:11;;;;;;;4.70;2.37;;;;;;;;;;6199016;23;20382;-82
2021/01/20 12:48:37;;;;;;;3.30;2.93;;;;;;;;;;6231379;23;20409;-84
2021/01/20 12:51:03;;;;;;;5.10;2.90;;;;;;;;;;6232707;23;20397;-82
2021/01/20 12:53:29;;;;;;;3.63;2.60;;;;;;;;;;6229616;23;20378;-84
2021/01/20 12:55:56;;;;;;;4.00;2.27;;;;;;;;;;6229117;23;20386;-83
2021/01/20 12:58:22;;;;;;;3.20;2.57;;;;;;;;;;6202627;23;20426;-83
2021/01/20 13:00:54;;;;;;;5.23;4.73;;;;;;;;;;6236491;23;20377;-83
2021/01/20 13:03:20;;;;;;;3.73;2.77;;;;;;;;;;6242110;23;20412;-80
2021/01/20 13:05:47;;;;;;;4.50;2.63;;;;;;;;;;6238952;23;20373;-81
2021/01/20 13:08:13;;;;;;;2.63;2.43;;;;;;;;;;6234733;23;20454;-82
2021/01/20 13:10:50;;;;;;;3.37;2.33;;;;;;;;;;6232598;23;20366;-82
2021/01/20 13:13:16;;;;;;;5.90;3.40;;;;;;;;;;6205094;23;20394;-81
2021/01/20 13:19:08;;;;;;;2.93;2.63;;;;;;;;;;6141508;23;20400;-81
2021/01/20 13:21:45;;;;;;;4.57;2.17;;;;;;;;;;6216422;23;20397;-83
2021/01/20 13:24:14;;;;;;;3.43;3.13;;;;;;;;;;6229700;23;20424;-84
2021/01/20 13:26:55;;;;;;;4.97;4.50;;;;;;;;;;6231299;23;20412;-85
2021/01/20 13:29:31;;;;;;;;;;;;;;;;;;;;;
2021/01/20 13:32:13;;;;;;;6.10;2.57;;;;;;;;;;6230834;23;20350;-83
2021/01/20 13:37:53;;;;;;;3.20;2.13;;;;;;;;;;6167599;23;20436;-81
2021/01/20 13:40:52;;;;;;;8.07;3.63;;;;;;;;;;6261189;22;20468;-86
2021/01/20 13:43:22;;;;;;;4.70;3.17;;;;;;;;;;6258690;22;20415;-84
2021/01/20 13:45:54;;;;;;;2.03;1.90;;;;;;;;;;6263604;22;20385;-85
2021/01/20 13:48:21;;;;;;;5.90;4.30;;;;;;;;;;6262140;22;20387;-84
2021/01/20 13:50:47;;;;;;;5.20;2.90;;;;;;;;;;6259322;22;20396;-86
2021/01/20 13:53:13;;;;;;;4.13;3.57;;;;;;;;;;6287587;22;20445;-85
2021/01/20 13:55:40;;;;;;;2.93;2.73;;;;;;;;;;6291200;22;20378;-85
2021/01/20 13:58:06;;;;;;;2.87;2.63;;;;;;;;;;6266101;22;20403;-86
2021/01/20 14:00:33;;;;;;;3.47;2.00;;;;;;;;;;6291386;22;20397;-85
2021/01/20 14:03:00;;;;;;;4.50;3.80;;;;;;;;;;6262266;22;20412;-85
2021/01/20 14:05:29;;;;;;;2.93;2.63;;;;;;;;;;6285873;22;20364;-84
2021/01/20 14:07:55;;;;;;;3.90;1.90;;;;;;;;;;6291400;22;20431;-85
2021/01/20 14:10:43;;;;;;;2.33;2.00;;;;;;;;;;6287888;22;20392;-86
2021/01/20 14:13:13;;;;;;;5.90;3.20;;;;;;;;;;6220508;22;20381;-86
2021/01/20 14:15:39;;;;;;;4.43;2.43;;;;;;;;;;6295467;22;20390;-84
2021/01/20 14:18:07;;;;;;;2.47;2.30;;;;;;;;;;6296439;22;20364;-83
2021/01/20 14:20:33;;;;;;;2.97;2.67;;;;;;;;;;6292497;22;20392;-85
2021/01/20 14:23:03;;;;;;;4.80;3.40;;;;;;;;;;6264622;22;20526;-85
2021/01/20 14:25:30;;;;;;;2.90;2.20;;;;;;;;;;6293704;22;20367;-84
2021/01/20 14:27:56;;;;;;;2.53;2.30;;;;;;;;;;6291275;22;20378;-85
2021/01/20 14:30:23;;;;;;;1.70;1.60;;;;;;;;;;6262768;22;20401;-85
2021/01/20 14:32:52;;;;;;;3.17;2.43;;;;;;;;;;6261065;22;20375;-85
2021/01/20 14:35:22;;;;;;;5.90;3.73;;;;;;;;;;6292027;22;20369;-84
2021/01/20 14:37:51;;;;;;;8.17;2.27;;;;;;;;;;6300574;22;20356;-86
2021/01/20 14:40:18;;;;;;;3.57;1.70;;;;;;;;;;6251948;22;20414;-86
2021/01/20 14:42:48;;;;;;;3.60;3.27;;;;;;;;;;6256762;23;20379;-85
2021/01/20 14:45:20;;;;;;;4.13;2.83;;;;;;;;;;6229621;23;20353;-84
2021/01/20 14:47:47;;;;;;;2.97;1.90;;;;;;;;;;6255724;23;20424;-85
2021/01/20 14:50:13;;;;;;;2.63;2.27;;;;;;;;;;6203869;23;20393;-86
2021/01/20 14:52:43;;;;;;;4.90;2.00;;;;;;;;;;6257078;23;20866;-84
2021/01/20 14:55:13;;;;;;;3.80;2.67;;;;;;;;;;6259787;23;20347;-85
2021/01/20 14:57:45;;;;;;;2.83;2.00;;;;;;;;;;6205809;23;20377;-85
2021/01/20 15:00:30;;;;;;;4.60;2.30;;;;;;;;;;6259692;22;20874;-86
2021/01/20 15:02:57;;;;;;;3.80;2.97;;;;;;;;;;6258423;23;20409;-85
2021/01/20 15:05:36;;;;;;;6.83;2.87;;;;;;;;;;6231053;23;20476;-86
2021/01/20 15:08:09;;;;;;;6.43;3.00;;;;;;;;;;6229220;23;20383;-86
2021/01/20 15:10:51;;;;;;;;;;;;;;;;;;;;;
2021/01/20 15:13:31;;;;;;;;;;;;;;;;;;;;;
2021/01/20 15:16:11;;;;;;;;;;;;;;;;;;;;;